sensor_id;sensor_type;location;lat;lon;timestamp;pressure;altitude;pressure_sealevel;temperature;humidity
63194;BME280;49289;51.670;5.624;2023-07-22T00:00:06;101529.10;;;23.76;48.47
63194;BME280;49289;51.670;5.624;2023-07-22T00:01:53;101529.96;;;24.01;48.87
63194;BME280;49289;51.670;5.624;2023-07-22T00:03:40;101530.75;;;23.93;49.09
63194;BME280;49289;51.670;5.624;2023-07-22T00:05:28;101510.56;;;23.80;49.57
63194;BME280;49289;51.670;5.624;2023-07-22T00:07:16;101531.91;;;23.96;49.49
63194;BME280;49289;51.670;5.624;2023-07-22T00:09:03;101534.30;;;23.86;49.67
63194;BME280;49289;51.670;5.624;2023-07-22T00:10:53;101533.50;;;23.95;49.56
63194;BME280;49289;51.670;5.624;2023-07-22T00:12:41;101532.95;;;23.86;49.43
63194;BME280;49289;51.670;5.624;2023-07-22T00:14:29;101534.06;;;24.02;49.73
63194;BME280;49289;51.670;5.624;2023-07-22T00:16:16;101514.70;;;23.52;49.21
63194;BME280;49289;51.670;5.624;2023-07-22T00:18:03;101528.75;;;23.81;49.81
63194;BME280;49289;51.670;5.624;2023-07-22T00:19:50;101510.99;;;23.77;49.79
63194;BME280;49289;51.670;5.624;2023-07-22T00:21:37;101519.07;;;23.27;49.42
63194;BME280;49289;51.670;5.624;2023-07-22T00:23:24;101522.06;;;23.74;49.10
63194;BME280;49289;51.670;5.624;2023-07-22T00:25:12;101527.94;;;23.48;49.61
63194;BME280;49289;51.670;5.624;2023-07-22T00:27:00;101505.08;;;23.57;49.29
63194;BME280;49289;51.670;5.624;2023-07-22T00:28:48;101525.84;;;23.71;49.35
63194;BME280;49289;51.670;5.624;2023-07-22T00:30:36;101504.73;;;23.62;48.95
63194;BME280;49289;51.670;5.624;2023-07-22T00:32:23;101503.56;;;23.49;48.76
63194;BME280;49289;51.670;5.624;2023-07-22T00:34:10;101523.26;;;23.45;48.92
63194;BME280;49289;51.670;5.624;2023-07-22T00:36:00;101517.05;;;23.09;49.53
63194;BME280;49289;51.670;5.624;2023-07-22T00:37:48;101496.38;;;23.03;49.50
63194;BME280;49289;51.670;5.624;2023-07-22T00:39:35;101500.14;;;23.30;49.13
63194;BME280;49289;51.670;5.624;2023-07-22T00:41:22;101522.73;;;23.13;49.87
63194;BME280;49289;51.670;5.624;2023-07-22T00:43:09;101523.48;;;23.39;49.70
63194;BME280;49289;51.670;5.624;2023-07-22T00:44:56;101524.57;;;23.41;49.48
63194;BME280;49289;51.670;5.624;2023-07-22T00:46:45;101507.84;;;23.09;49.62
63194;BME280;49289;51.670;5.624;2023-07-22T00:48:33;101445.32;;;22.64;50.31
63194;BME280;49289;51.670;5.624;2023-07-22T00:50:21;101524.17;;;23.27;50.20
63194;BME280;49289;51.670;5.624;2023-07-22T00:52:09;101523.91;;;23.14;50.29
63194;BME280;49289;51.670;5.624;2023-07-22T00:53:57;101521.70;;;22.90;51.07
63194;BME280;49289;51.670;5.624;2023-07-22T00:55:45;101526.92;;;23.20;50.76
63194;BME280;49289;51.670;5.624;2023-07-22T00:57:32;101502.72;;;22.73;51.46
63194;BME280;49289;51.670;5.624;2023-07-22T00:59:19;101493.50;;;22.93;51.34
63194;BME280;49289;51.670;5.624;2023-07-22T01:01:06;101523.16;;;22.51;52.02
63194;BME280;49289;51.670;5.624;2023-07-22T01:02:53;101518.88;;;22.78;52.43
63194;BME280;49289;51.670;5.624;2023-07-22T01:04:40;101513.36;;;23.11;51.84
63194;BME280;49289;51.670;5.624;2023-07-22T01:06:28;101512.69;;;23.14;51.68
63194;BME280;49289;51.670;5.624;2023-07-22T01:08:17;101486.23;;;22.78;52.75
63194;BME280;49289;51.670;5.624;2023-07-22T01:10:04;101510.52;;;23.12;52.51
63194;BME280;49289;51.670;5.624;2023-07-22T01:11:51;101514.42;;;22.86;53.30
63194;BME280;49289;51.670;5.624;2023-07-22T01:13:38;101463.86;;;22.98;52.72
63194;BME280;49289;51.670;5.624;2023-07-22T01:15:25;101485.71;;;23.22;52.49
63194;BME280;49289;51.670;5.624;2023-07-22T01:17:12;101483.73;;;23.08;52.87
63194;BME280;49289;51.670;5.624;2023-07-22T01:19:02;101508.58;;;22.75;54.57
63194;BME280;49289;51.670;5.624;2023-07-22T01:20:50;101499.95;;;22.85;54.76
63194;BME280;49289;51.670;5.624;2023-07-22T01:22:38;101485.23;;;23.07;53.88
63194;BME280;49289;51.670;5.624;2023-07-22T01:24:26;101502.91;;;23.26;53.68
63194;BME280;49289;51.670;5.624;2023-07-22T01:26:13;101479.55;;;23.24;53.46
63194;BME280;49289;51.670;5.624;2023-07-22T01:28:00;101479.09;;;23.39;53.37
63194;BME280;49289;51.670;5.624;2023-07-22T01:29:47;101499.46;;;23.32;53.90
63194;BME280;49289;51.670;5.624;2023-07-22T01:31:34;101496.77;;;23.17;54.42
63194;BME280;49289;51.670;5.624;2023-07-22T01:33:23;101498.88;;;23.46;53.85
63194;BME280;49289;51.670;5.624;2023-07-22T01:35:11;101477.42;;;23.36;53.70
63194;BME280;49289;51.670;5.624;2023-07-22T01:36:58;101497.78;;;23.13;54.19
63194;BME280;49289;51.670;5.624;2023-07-22T01:38:45;101495.42;;;22.95;54.79
63194;BME280;49289;51.670;5.624;2023-07-22T01:40:34;101458.41;;;22.82;54.74
63194;BME280;49289;51.670;5.624;2023-07-22T01:42:22;101493.58;;;23.02;54.60
63194;BME280;49289;51.670;5.624;2023-07-22T01:44:10;101492.53;;;23.24;54.57
63194;BME280;49289;51.670;5.624;2023-07-22T01:45:57;101491.66;;;23.36;54.23
63194;BME280;49289;51.670;5.624;2023-07-22T01:47:44;101489.84;;;23.43;53.88
63194;BME280;49289;51.670;5.624;2023-07-22T01:49:31;101491.31;;;23.42;53.62
63194;BME280;49289;51.670;5.624;2023-07-22T01:51:19;101489.23;;;23.51;53.13
63194;BME280;49289;51.670;5.624;2023-07-22T01:53:08;101487.41;;;23.13;53.19
63194;BME280;49289;51.670;5.624;2023-07-22T01:54:56;101464.39;;;22.81;54.57
63194;BME280;49289;51.670;5.624;2023-07-22T01:56:44;101485.38;;;23.18;53.67
63194;BME280;49289;51.670;5.624;2023-07-22T01:58:32;101482.28;;;23.37;53.13
63194;BME280;49289;51.670;5.624;2023-07-22T02:00:20;101487.47;;;23.52;53.08
63194;BME280;49289;51.670;5.624;2023-07-22T02:02:08;101485.55;;;23.38;52.73
63194;BME280;49289;51.670;5.624;2023-07-22T02:03:55;101489.47;;;23.54;52.34
63194;BME280;49289;51.670;5.624;2023-07-22T02:05:42;101465.38;;;23.33;52.11
63194;BME280;49289;51.670;5.624;2023-07-22T02:07:29;101491.00;;;23.15;52.52
63194;BME280;49289;51.670;5.624;2023-07-22T02:09:17;101490.16;;;23.18;53.11
63194;BME280;49289;51.670;5.624;2023-07-22T02:11:07;101467.63;;;22.97;53.10
63194;BME280;49289;51.670;5.624;2023-07-22T02:12:53;101490.92;;;22.77;53.88
63194;BME280;49289;51.670;5.624;2023-07-22T02:14:40;101486.55;;;22.97;53.89
63194;BME280;49289;51.670;5.624;2023-07-22T02:16:27;101484.14;;;23.05;53.63
63194;BME280;49289;51.670;5.624;2023-07-22T02:18:15;101464.79;;;22.92;53.37
63194;BME280;49289;51.670;5.624;2023-07-22T02:20:03;101481.95;;;23.47;52.76
63194;BME280;49289;51.670;5.624;2023-07-22T02:21:51;101484.80;;;23.33;52.53
63194;BME280;49289;51.670;5.624;2023-07-22T02:23:38;101481.79;;;23.13;52.76
63194;BME280;49289;51.670;5.624;2023-07-22T02:25:25;101479.27;;;23.17;53.04
63194;BME280;49289;51.670;5.624;2023-07-22T02:27:12;101476.52;;;23.06;52.90
63194;BME280;49289;51.670;5.624;2023-07-22T02:29:00;101475.35;;;23.09;52.96
63194;BME280;49289;51.670;5.624;2023-07-22T02:30:49;101474.07;;;23.02;53.09
63194;BME280;49289;51.670;5.624;2023-07-22T02:32:37;101459.19;;;23.12;53.00
63194;BME280;49289;51.670;5.624;2023-07-22T02:34:25;101479.44;;;23.21;52.88
63194;BME280;49289;51.670;5.624;2023-07-22T02:36:13;101477.18;;;22.91;53.56
63194;BME280;49289;51.670;5.624;2023-07-22T02:38:01;101472.66;;;22.91;53.92
63194;BME280;49289;51.670;5.624;2023-07-22T02:39:49;101469.22;;;22.98;53.81
63194;BME280;49289;51.670;5.624;2023-07-22T02:41:37;101469.73;;;23.31;53.14
63194;BME280;49289;51.670;5.624;2023-07-22T02:43:24;101469.11;;;23.54;52.88
63194;BME280;49289;51.670;5.624;2023-07-22T02:45:12;101469.38;;;23.69;52.64
63194;BME280;49289;51.670;5.624;2023-07-22T02:47:00;101450.43;;;23.62;52.74
63194;BME280;49289;51.670;5.624;2023-07-22T02:48:47;101470.21;;;23.69;52.77
63194;BME280;49289;51.670;5.624;2023-07-22T02:50:34;101449.78;;;23.57;52.72
63194;BME280;49289;51.670;5.624;2023-07-22T02:52:21;101467.87;;;23.59;52.92
63194;BME280;49289;51.670;5.624;2023-07-22T02:54:08;101451.44;;;23.53;52.97
63194;BME280;49289;51.670;5.624;2023-07-22T02:55:56;101474.55;;;23.73;52.76
63194;BME280;49289;51.670;5.624;2023-07-22T02:57:45;101452.77;;;23.56;53.01
63194;BME280;49289;51.670;5.624;2023-07-22T02:59:33;101479.76;;;23.61;53.04
63194;BME280;49289;51.670;5.624;2023-07-22T03:01:20;101474.06;;;23.40;53.11
63194;BME280;49289;51.670;5.624;2023-07-22T03:03:07;101451.16;;;23.03;53.50
63194;BME280;49289;51.670;5.624;2023-07-22T03:04:55;101470.66;;;23.14;53.77
63194;BME280;49289;51.670;5.624;2023-07-22T03:06:43;101474.67;;;23.13;53.66
63194;BME280;49289;51.670;5.624;2023-07-22T03:08:32;101476.94;;;23.11;53.33
63194;BME280;49289;51.670;5.624;2023-07-22T03:10:20;101477.44;;;23.16;53.52
63194;BME280;49289;51.670;5.624;2023-07-22T03:12:07;101479.38;;;23.26;53.34
63194;BME280;49289;51.670;5.624;2023-07-22T03:13:55;101476.17;;;23.20;53.58
63194;BME280;49289;51.670;5.624;2023-07-22T03:15:44;101478.45;;;23.05;53.58
63194;BME280;49289;51.670;5.624;2023-07-22T03:17:32;101479.45;;;23.11;53.45
63194;BME280;49289;51.670;5.624;2023-07-22T03:19:20;101485.73;;;23.13;53.59
63194;BME280;49289;51.670;5.624;2023-07-22T03:21:08;101463.11;;;22.96;53.58
63194;BME280;49289;51.670;5.624;2023-07-22T03:22:56;101489.33;;;23.06;53.62
63194;BME280;49289;51.670;5.624;2023-07-22T03:24:43;101471.91;;;22.92;53.88
63194;BME280;49289;51.670;5.624;2023-07-22T03:26:30;101460.77;;;22.61;54.09
63194;BME280;49289;51.670;5.624;2023-07-22T03:28:17;101487.41;;;22.79;54.09
63194;BME280;49289;51.670;5.624;2023-07-22T03:30:04;101490.95;;;22.52;54.38
63194;BME280;49289;51.670;5.624;2023-07-22T03:31:51;101496.27;;;22.70;54.32
63194;BME280;49289;51.670;5.624;2023-07-22T03:33:38;101494.36;;;22.77;54.20
63194;BME280;49289;51.670;5.624;2023-07-22T03:35:25;101476.91;;;22.56;54.42
63194;BME280;49289;51.670;5.624;2023-07-22T03:37:13;101497.81;;;22.50;54.70
63194;BME280;49289;51.670;5.624;2023-07-22T03:39:02;101500.70;;;22.66;54.67
63194;BME280;49289;51.670;5.624;2023-07-22T03:40:50;101498.88;;;22.73;54.62
63194;BME280;49289;51.670;5.624;2023-07-22T03:42:38;101496.28;;;22.78;54.55
63194;BME280;49289;51.670;5.624;2023-07-22T03:44:25;101490.97;;;22.61;54.50
63194;BME280;49289;51.670;5.624;2023-07-22T03:46:12;101500.05;;;22.76;54.33
63194;BME280;49289;51.670;5.624;2023-07-22T03:48:00;101474.64;;;22.53;54.62
63194;BME280;49289;51.670;5.624;2023-07-22T03:49:48;101490.84;;;22.67;54.58
63194;BME280;49289;51.670;5.624;2023-07-22T03:51:36;101492.05;;;22.62;54.67
63194;BME280;49289;51.670;5.624;2023-07-22T03:53:24;101489.12;;;22.58;54.99
63194;BME280;49289;51.670;5.624;2023-07-22T03:55:13;101489.95;;;22.58;55.01
63194;BME280;49289;51.670;5.624;2023-07-22T03:57:00;101492.89;;;22.58;54.86
63194;BME280;49289;51.670;5.624;2023-07-22T03:58:47;101492.48;;;22.36;55.08
63194;BME280;49289;51.670;5.624;2023-07-22T04:00:37;101465.63;;;22.29;55.25
63194;BME280;49289;51.670;5.624;2023-07-22T04:02:24;101488.41;;;22.20;55.42
63194;BME280;49289;51.670;5.624;2023-07-22T04:04:12;101491.41;;;22.42;55.28
63194;BME280;49289;51.670;5.624;2023-07-22T04:06:05;101465.83;;;22.20;55.17
63194;BME280;49289;51.670;5.624;2023-07-22T04:07:54;101495.49;;;22.34;54.94
63194;BME280;49289;51.670;5.624;2023-07-22T04:09:43;101495.63;;;22.43;55.01
63194;BME280;49289;51.670;5.624;2023-07-22T04:11:30;101493.88;;;22.48;54.84
63194;BME280;49289;51.670;5.624;2023-07-22T04:13:18;101495.48;;;22.32;54.84
63194;BME280;49289;51.670;5.624;2023-07-22T04:15:06;101491.03;;;22.44;54.69
63194;BME280;49289;51.670;5.624;2023-07-22T04:16:53;101495.52;;;22.65;54.32
63194;BME280;49289;51.670;5.624;2023-07-22T04:18:40;101495.55;;;22.43;54.49
63194;BME280;49289;51.670;5.624;2023-07-22T04:20:27;101494.06;;;22.32;54.71
63194;BME280;49289;51.670;5.624;2023-07-22T04:22:14;101493.06;;;22.34;54.40
63194;BME280;49289;51.670;5.624;2023-07-22T04:24:01;101497.94;;;22.41;54.64
63194;BME280;49289;51.670;5.624;2023-07-22T04:25:51;101479.52;;;22.30;54.54
63194;BME280;49289;51.670;5.624;2023-07-22T04:27:39;101476.77;;;22.39;54.42
63194;BME280;49289;51.670;5.624;2023-07-22T04:29:27;101496.17;;;22.16;54.69
63194;BME280;49289;51.670;5.624;2023-07-22T04:31:15;101502.70;;;21.89;55.29
63194;BME280;49289;51.670;5.624;2023-07-22T04:33:03;101477.25;;;22.09;54.81
63194;BME280;49289;51.670;5.624;2023-07-22T04:34:51;101478.77;;;22.11;54.83
63194;BME280;49289;51.670;5.624;2023-07-22T04:36:39;101506.30;;;21.90;55.13
63194;BME280;49289;51.670;5.624;2023-07-22T04:38:27;101499.81;;;22.23;54.56
63194;BME280;49289;51.670;5.624;2023-07-22T04:40:15;101472.75;;;22.10;54.69
63194;BME280;49289;51.670;5.624;2023-07-22T04:42:03;101500.04;;;21.93;55.08
63194;BME280;49289;51.670;5.624;2023-07-22T04:43:50;101504.80;;;21.64;55.80
63194;BME280;49289;51.670;5.624;2023-07-22T04:45:37;101507.25;;;21.98;55.29
63194;BME280;49289;51.670;5.624;2023-07-22T04:47:24;101505.02;;;22.11;55.09
63194;BME280;49289;51.670;5.624;2023-07-22T04:49:11;101485.36;;;21.67;55.77
63194;BME280;49289;51.670;5.624;2023-07-22T04:50:59;101508.89;;;21.90;55.52
63194;BME280;49289;51.670;5.624;2023-07-22T04:52:47;101489.83;;;21.27;56.61
63194;BME280;49289;51.670;5.624;2023-07-22T04:54:35;101507.17;;;21.45;56.71
63194;BME280;49289;51.670;5.624;2023-07-22T04:56:24;101505.62;;;21.88;55.90
63194;BME280;49289;51.670;5.624;2023-07-22T04:58:12;101505.86;;;21.85;55.97
63194;BME280;49289;51.670;5.624;2023-07-22T05:00:00;101505.00;;;22.07;55.41
63194;BME280;49289;51.670;5.624;2023-07-22T05:01:48;101508.94;;;22.26;55.17
63194;BME280;49289;51.670;5.624;2023-07-22T05:03:35;101489.33;;;21.77;55.52
63194;BME280;49289;51.670;5.624;2023-07-22T05:05:22;101484.41;;;21.79;55.63
63194;BME280;49289;51.670;5.624;2023-07-22T05:07:10;101489.20;;;22.08;55.56
63194;BME280;49289;51.670;5.624;2023-07-22T05:08:58;101493.31;;;21.84;55.69
63194;BME280;49289;51.670;5.624;2023-07-22T05:10:46;101513.50;;;21.95;55.51
63194;BME280;49289;51.670;5.624;2023-07-22T05:12:34;101505.71;;;22.42;55.01
63194;BME280;49289;51.670;5.624;2023-07-22T05:14:21;101506.03;;;22.34;54.82
63194;BME280;49289;51.670;5.624;2023-07-22T05:16:08;101488.28;;;22.23;54.64
63194;BME280;49289;51.670;5.624;2023-07-22T05:17:56;101512.47;;;22.15;54.98
63194;BME280;49289;51.670;5.624;2023-07-22T05:19:45;101489.88;;;22.01;55.34
63194;BME280;49289;51.670;5.624;2023-07-22T05:21:33;101516.49;;;21.91;56.23
63194;BME280;49289;51.670;5.624;2023-07-22T05:23:21;101491.77;;;21.94;56.45
63194;BME280;49289;51.670;5.624;2023-07-22T05:25:08;101506.30;;;21.54;56.37
63194;BME280;49289;51.670;5.624;2023-07-22T05:26:57;101512.84;;;21.99;55.90
63194;BME280;49289;51.670;5.624;2023-07-22T05:28:46;101509.48;;;22.22;55.49
63194;BME280;49289;51.670;5.624;2023-07-22T05:30:34;101509.16;;;21.96;55.71
63194;BME280;49289;51.670;5.624;2023-07-22T05:32:22;101488.12;;;22.06;55.54
63194;BME280;49289;51.670;5.624;2023-07-22T05:34:09;101491.37;;;22.28;55.26
63194;BME280;49289;51.670;5.624;2023-07-22T05:35:56;101489.23;;;22.03;55.95
63194;BME280;49289;51.670;5.624;2023-07-22T05:37:43;101494.86;;;21.80;56.04
63194;BME280;49289;51.670;5.624;2023-07-22T05:39:30;101499.16;;;22.08;56.06
63194;BME280;49289;51.670;5.624;2023-07-22T05:41:18;101514.63;;;22.10;55.77
63194;BME280;49289;51.670;5.624;2023-07-22T05:43:07;101502.19;;;21.88;56.43
63194;BME280;49289;51.670;5.624;2023-07-22T05:44:54;101501.55;;;21.96;56.62
63194;BME280;49289;51.670;5.624;2023-07-22T05:46:41;101520.26;;;22.20;55.94
63194;BME280;49289;51.670;5.624;2023-07-22T05:48:28;101520.98;;;22.26;56.30
63194;BME280;49289;51.670;5.624;2023-07-22T05:50:16;101523.05;;;21.98;56.43
63194;BME280;49289;51.670;5.624;2023-07-22T05:52:04;101497.18;;;22.18;55.87
63194;BME280;49289;51.670;5.624;2023-07-22T05:53:51;101491.49;;;21.75;56.91
63194;BME280;49289;51.670;5.624;2023-07-22T05:55:38;101494.02;;;21.81;57.20
63194;BME280;49289;51.670;5.624;2023-07-22T05:57:25;101493.04;;;22.04;56.91
63194;BME280;49289;51.670;5.624;2023-07-22T05:59:12;101509.89;;;22.42;56.44
63194;BME280;49289;51.670;5.624;2023-07-22T06:00:59;101506.13;;;22.42;56.26
63194;BME280;49289;51.670;5.624;2023-07-22T06:02:47;101480.77;;;22.30;56.85
63194;BME280;49289;51.670;5.624;2023-07-22T06:04:35;101500.31;;;22.48;56.65
63194;BME280;49289;51.670;5.624;2023-07-22T06:06:24;101502.59;;;22.29;57.41
63194;BME280;49289;51.670;5.624;2023-07-22T06:08:12;101499.42;;;22.16;57.66
63194;BME280;49289;51.670;5.624;2023-07-22T06:10:00;101499.27;;;22.89;56.14
63194;BME280;49289;51.670;5.624;2023-07-22T06:11:47;101481.80;;;23.12;54.90
63194;BME280;49289;51.670;5.624;2023-07-22T06:13:34;101499.03;;;23.18;54.89
63194;BME280;49289;51.670;5.624;2023-07-22T06:15:21;101499.70;;;23.21;55.25
63194;BME280;49289;51.670;5.624;2023-07-22T06:17:10;101476.74;;;23.51;54.17
63194;BME280;49289;51.670;5.624;2023-07-22T06:18:58;101501.87;;;23.53;53.91
63194;BME280;49289;51.670;5.624;2023-07-22T06:20:46;101490.14;;;23.42;54.67
63194;BME280;49289;51.670;5.624;2023-07-22T06:22:33;101477.17;;;22.96;55.52
63194;BME280;49289;51.670;5.624;2023-07-22T06:24:20;101497.09;;;22.93;56.57
63194;BME280;49289;51.670;5.624;2023-07-22T06:26:07;101496.18;;;22.89;56.56
63194;BME280;49289;51.670;5.624;2023-07-22T06:27:54;101495.61;;;23.05;55.97
63194;BME280;49289;51.670;5.624;2023-07-22T06:29:41;101494.75;;;22.88;56.46
63194;BME280;49289;51.670;5.624;2023-07-22T06:31:28;101493.52;;;23.11;55.89
63194;BME280;49289;51.670;5.624;2023-07-22T06:33:15;101467.53;;;23.39;56.16
63194;BME280;49289;51.670;5.624;2023-07-22T06:35:04;101470.34;;;23.77;55.11
63194;BME280;49289;51.670;5.624;2023-07-22T06:36:52;101490.33;;;23.58;54.81
63194;BME280;49289;51.670;5.624;2023-07-22T06:38:40;101486.12;;;23.41;55.61
63194;BME280;49289;51.670;5.624;2023-07-22T06:40:28;101489.13;;;23.56;55.91
63194;BME280;49289;51.670;5.624;2023-07-22T06:42:15;101488.16;;;23.34;55.56
63194;BME280;49289;51.670;5.624;2023-07-22T06:44:02;101462.88;;;23.28;55.97
63194;BME280;49289;51.670;5.624;2023-07-22T06:45:50;101481.03;;;23.93;54.86
63194;BME280;49289;51.670;5.624;2023-07-22T06:47:38;101486.80;;;23.61;55.51
63194;BME280;49289;51.670;5.624;2023-07-22T06:49:27;101465.38;;;23.44;55.96
63194;BME280;49289;51.670;5.624;2023-07-22T06:51:15;101464.22;;;23.26;55.97
63194;BME280;49289;51.670;5.624;2023-07-22T06:53:03;101478.02;;;23.46;56.26
63194;BME280;49289;51.670;5.624;2023-07-22T06:54:50;101480.56;;;23.78;55.37
63194;BME280;49289;51.670;5.624;2023-07-22T06:56:37;101454.68;;;23.99;55.03
63194;BME280;49289;51.670;5.624;2023-07-22T06:58:25;101468.16;;;24.32;55.00
63194;BME280;49289;51.670;5.624;2023-07-22T07:00:14;101464.64;;;24.22;53.96
63194;BME280;49289;51.670;5.624;2023-07-22T07:02:02;101468.97;;;23.66;54.70
63194;BME280;49289;51.670;5.624;2023-07-22T07:03:50;101448.44;;;23.47;55.84
63194;BME280;49289;51.670;5.624;2023-07-22T07:05:38;101463.50;;;23.53;55.80
63194;BME280;49289;51.670;5.624;2023-07-22T07:07:26;101468.80;;;23.58;56.43
63194;BME280;49289;51.670;5.624;2023-07-22T07:09:14;101469.58;;;23.25;56.79
63194;BME280;49289;51.670;5.624;2023-07-22T07:11:01;101469.29;;;23.69;55.97
63194;BME280;49289;51.670;5.624;2023-07-22T07:12:48;101474.48;;;23.94;55.78
63194;BME280;49289;51.670;5.624;2023-07-22T07:14:35;101449.90;;;24.29;54.77
63194;BME280;49289;51.670;5.624;2023-07-22T07:16:32;101469.91;;;24.65;53.97
63194;BME280;49289;51.670;5.624;2023-07-22T07:18:21;101471.20;;;24.71;53.56
63194;BME280;49289;51.670;5.624;2023-07-22T07:20:09;101473.72;;;23.98;54.53
63194;BME280;49289;51.670;5.624;2023-07-22T07:21:56;101458.27;;;24.31;54.42
63194;BME280;49289;51.670;5.624;2023-07-22T07:23:44;101470.94;;;24.63;53.40
63194;BME280;49289;51.670;5.624;2023-07-22T07:25:31;101473.80;;;24.29;53.77
63194;BME280;49289;51.670;5.624;2023-07-22T07:27:19;101472.57;;;24.14;54.75
63194;BME280;49289;51.670;5.624;2023-07-22T07:29:08;101469.41;;;24.34;54.26
63194;BME280;49289;51.670;5.624;2023-07-22T07:30:56;101474.78;;;24.50;53.79
63194;BME280;49289;51.670;5.624;2023-07-22T07:32:44;101473.66;;;24.55;53.99
63194;BME280;49289;51.670;5.624;2023-07-22T07:34:32;101471.78;;;24.20;54.64
63194;BME280;49289;51.670;5.624;2023-07-22T07:36:20;101450.80;;;24.23;54.47
63194;BME280;49289;51.670;5.624;2023-07-22T07:38:07;101476.30;;;24.65;54.16
63194;BME280;49289;51.670;5.624;2023-07-22T07:39:54;101475.00;;;23.93;54.87
63194;BME280;49289;51.670;5.624;2023-07-22T07:41:41;101457.64;;;23.94;55.31
63194;BME280;49289;51.670;5.624;2023-07-22T07:43:29;101478.24;;;23.55;56.26
63194;BME280;49289;51.670;5.624;2023-07-22T07:45:17;101480.45;;;23.93;56.28
63194;BME280;49289;51.670;5.624;2023-07-22T07:47:05;101472.43;;;24.09;55.53
63194;BME280;49289;51.670;5.624;2023-07-22T07:48:54;101473.33;;;24.12;55.74
63194;BME280;49289;51.670;5.624;2023-07-22T07:50:42;101475.61;;;24.11;54.88
63194;BME280;49289;51.670;5.624;2023-07-22T07:52:30;101456.48;;;23.46;56.21
63194;BME280;49289;51.670;5.624;2023-07-22T07:54:18;101451.75;;;23.98;55.19
63194;BME280;49289;51.670;5.624;2023-07-22T07:56:05;101452.00;;;24.44;54.15
63194;BME280;49289;51.670;5.624;2023-07-22T07:57:52;101471.02;;;24.25;54.58
63194;BME280;49289;51.670;5.624;2023-07-22T07:59:39;101452.44;;;24.37;53.96
63194;BME280;49289;51.670;5.624;2023-07-22T08:01:27;101476.03;;;24.77;54.19
63194;BME280;49289;51.670;5.624;2023-07-22T08:03:15;101477.07;;;24.42;53.89
63194;BME280;49289;51.670;5.624;2023-07-22T08:05:04;101479.08;;;24.48;54.33
63194;BME280;49289;51.670;5.624;2023-07-22T08:06:52;101454.91;;;24.09;54.41
63194;BME280;49289;51.670;5.624;2023-07-22T08:08:40;101480.13;;;24.69;53.76
63194;BME280;49289;51.670;5.624;2023-07-22T08:10:28;101477.05;;;24.28;53.98
63194;BME280;49289;51.670;5.624;2023-07-22T08:12:16;101475.72;;;24.64;53.22
63194;BME280;49289;51.670;5.624;2023-07-22T08:14:04;101475.97;;;25.04;53.24
63194;BME280;49289;51.670;5.624;2023-07-22T08:15:52;101475.28;;;24.90;53.00
63194;BME280;49289;51.670;5.624;2023-07-22T08:17:40;101455.75;;;25.10;52.64
63194;BME280;49289;51.670;5.624;2023-07-22T08:19:28;101453.25;;;24.80;52.42
63194;BME280;49289;51.670;5.624;2023-07-22T08:21:16;101478.02;;;24.93;52.61
63194;BME280;49289;51.670;5.624;2023-07-22T08:23:04;101462.27;;;24.66;52.94
63194;BME280;49289;51.670;5.624;2023-07-22T08:24:51;101480.53;;;25.29;52.27
63194;BME280;49289;51.670;5.624;2023-07-22T08:26:38;101480.02;;;24.86;52.37
63194;BME280;49289;51.670;5.624;2023-07-22T08:28:25;101484.67;;;25.16;52.26
63194;BME280;49289;51.670;5.624;2023-07-22T08:30:13;101490.59;;;25.40;51.42
63194;BME280;49289;51.670;5.624;2023-07-22T08:32:00;101488.22;;;25.14;51.56
63194;BME280;49289;51.670;5.624;2023-07-22T08:33:47;101487.55;;;25.05;51.38
63194;BME280;49289;51.670;5.624;2023-07-22T08:35:35;101489.02;;;25.37;51.10
63194;BME280;49289;51.670;5.624;2023-07-22T08:37:24;101490.66;;;24.98;52.02
63194;BME280;49289;51.670;5.624;2023-07-22T08:39:12;101482.30;;;25.29;51.57
63194;BME280;49289;51.670;5.624;2023-07-22T08:41:00;101410.34;;;25.25;50.94
63194;BME280;49289;51.670;5.624;2023-07-22T08:42:48;101481.30;;;26.02;49.81
63194;BME280;49289;51.670;5.624;2023-07-22T08:44:38;101475.69;;;26.29;48.98
63194;BME280;49289;51.670;5.624;2023-07-22T08:46:25;101480.06;;;25.94;49.31
63194;BME280;49289;51.670;5.624;2023-07-22T08:48:13;101479.30;;;26.01;48.24
63194;BME280;49289;51.670;5.624;2023-07-22T08:50:01;101482.61;;;26.13;48.30
63194;BME280;49289;51.670;5.624;2023-07-22T08:51:48;101478.70;;;25.96;48.39
63194;BME280;49289;51.670;5.624;2023-07-22T08:53:35;101479.38;;;25.89;48.46
63194;BME280;49289;51.670;5.624;2023-07-22T08:55:22;101459.83;;;25.69;48.14
63194;BME280;49289;51.670;5.624;2023-07-22T08:57:11;101467.13;;;25.77;48.62
63194;BME280;49289;51.670;5.624;2023-07-22T08:58:58;101479.17;;;26.06;48.36
63194;BME280;49289;51.670;5.624;2023-07-22T09:00:45;101460.06;;;25.92;47.43
63194;BME280;49289;51.670;5.624;2023-07-22T09:02:32;101479.41;;;25.98;47.73
63194;BME280;49289;51.670;5.624;2023-07-22T09:04:20;101481.18;;;25.85;47.68
63194;BME280;49289;51.670;5.624;2023-07-22T09:06:06;101475.41;;;25.55;47.34
63194;BME280;49289;51.670;5.624;2023-07-22T09:07:53;101457.89;;;25.97;46.34
63194;BME280;49289;51.670;5.624;2023-07-22T09:09:42;101471.33;;;26.41;45.54
63194;BME280;49289;51.670;5.624;2023-07-22T09:11:29;101456.87;;;25.71;46.28
63194;BME280;49289;51.670;5.624;2023-07-22T09:13:16;101457.00;;;25.30;46.63
63194;BME280;49289;51.670;5.624;2023-07-22T09:15:03;101460.55;;;25.09;46.81
63194;BME280;49289;51.670;5.624;2023-07-22T09:16:50;101483.73;;;25.17;46.55
63194;BME280;49289;51.670;5.624;2023-07-22T09:18:38;101459.97;;;24.23;49.11
63194;BME280;49289;51.670;5.624;2023-07-22T09:20:26;101455.42;;;24.46;49.01
63194;BME280;49289;51.670;5.624;2023-07-22T09:22:13;101456.79;;;24.69;48.68